createdAt,value
2018-02-20T00:00:33.118Z,1.12
2018-02-20T00:01:41.942Z,1.16
2018-02-20T00:02:50.770Z,1.09
2018-02-20T00:03:59.593Z,1.11
2018-02-20T00:05:08.819Z,1.12
2018-02-20T00:06:17.646Z,1.06
2018-02-20T00:07:26.469Z,1.06
2018-02-20T00:08:35.297Z,1
2018-02-20T00:09:44.167Z,1.04
2018-02-20T00:10:53.226Z,1.04
2018-02-20T00:12:02.053Z,1.02
2018-02-20T00:13:10.878Z,1.04
2018-02-20T00:14:19.702Z,0.93
2018-02-20T00:15:28.529Z,0.88
2018-02-20T00:16:37.738Z,0.88
2018-02-20T00:17:46.833Z,0.9
2018-02-20T00:18:55.659Z,0.87
2018-02-20T00:20:04.483Z,0.78
2018-02-20T00:21:13.311Z,0.76
2018-02-20T00:22:22.415Z,0.83
2018-02-20T00:23:31.513Z,0.83
2018-02-20T00:24:40.340Z,0.83
2018-02-20T00:25:49.168Z,0.79
2018-02-20T00:26:58.542Z,0.72
2018-02-20T00:28:07.570Z,0.66
2018-02-20T00:29:16.398Z,0.76
2018-02-20T00:30:25.223Z,0.65
2018-02-20T00:31:34.048Z,0.65
2018-02-20T00:32:42.872Z,0.7
2018-02-20T00:33:51.799Z,0.7
2018-02-20T00:35:00.625Z,0.51
2018-02-20T00:36:09.454Z,0.61
2018-02-20T00:37:18.278Z,0.51
2018-02-20T00:38:27.379Z,0.5
2018-02-20T00:39:36.359Z,0.53
2018-02-20T00:40:45.186Z,0.49
2018-02-20T00:41:54.290Z,0.53
2018-02-20T00:43:03.119Z,0.55
2018-02-20T00:44:11.938Z,0.51
2018-02-20T00:45:20.766Z,0.46
2018-02-20T00:46:29.590Z,0.47
2018-02-20T00:47:38.415Z,0.42
2018-02-20T00:48:47.239Z,0.47
2018-02-20T00:49:56.063Z,0.49
2018-02-20T00:51:04.987Z,0.42
2018-02-20T00:52:13.807Z,0.44
2018-02-20T00:53:22.634Z,0.41
2018-02-20T00:54:31.456Z,0.39
2018-02-20T00:55:40.281Z,0.38
2018-02-20T00:56:49.406Z,0.39
2018-02-20T00:57:58.232Z,0.33
2018-02-20T00:59:07.057Z,0.36
2018-02-20T01:00:15.888Z,0.38
2018-02-20T01:01:24.709Z,0.38
2018-02-20T01:02:33.959Z,0.42
2018-02-20T01:03:43.068Z,0.42
2018-02-20T01:04:52.442Z,0.36
2018-02-20T01:06:01.265Z,0.35
2018-02-20T01:07:10.091Z,0.35
2018-02-20T01:08:18.914Z,0.28
2018-02-20T01:09:27.735Z,0.35
2018-02-20T01:10:36.560Z,0.38
2018-02-20T01:11:45.388Z,0.32
2018-02-20T01:12:54.211Z,0.28
2018-02-20T01:14:03.341Z,0.29
2018-02-20T01:15:12.163Z,0.21
2018-02-20T01:16:20.988Z,0.21
2018-02-20T01:17:29.816Z,0.23
2018-02-20T01:18:38.922Z,0.21
2018-02-20T01:19:48.049Z,0.15
2018-02-20T01:20:56.870Z,0.11
2018-02-20T01:22:05.697Z,0.15
2018-02-20T01:23:14.517Z,0.03
2018-02-20T01:24:23.343Z,0.02
2018-02-20T01:25:32.314Z,-0.01
2018-02-20T01:26:41.138Z,-0.01
2018-02-20T01:27:49.965Z,0.07
2018-02-20T01:28:58.787Z,0.03
2018-02-20T01:30:07.616Z,0.11
2018-02-20T01:31:16.592Z,0.21
2018-02-20T01:32:25.417Z,0.13
2018-02-20T01:33:34.241Z,0.15
2018-02-20T01:34:43.067Z,0.13
2018-02-20T01:35:51.891Z,0.11
2018-02-20T01:37:01.015Z,0.07
2018-02-20T01:38:09.839Z,0.02
2018-02-20T01:39:18.663Z,0.02
2018-02-20T01:40:27.491Z,0.04
2018-02-20T01:41:36.312Z,0.03
2018-02-20T01:42:45.185Z,0
2018-02-20T01:43:54.011Z,-0.01
2018-02-20T01:45:02.840Z,-0.01
2018-02-20T01:46:11.661Z,-0.15
2018-02-20T01:47:20.485Z,-0.1
2018-02-20T01:48:29.361Z,-0.16
2018-02-20T01:49:38.184Z,-0.14
2018-02-20T01:50:47.012Z,-0.21
2018-02-20T01:51:55.831Z,-0.1
2018-02-20T01:53:04.655Z,-0.15
2018-02-20T01:54:13.756Z,-0.1
2018-02-20T01:55:22.858Z,-0.11
2018-02-20T01:56:31.683Z,-0.19
2018-02-20T01:57:40.505Z,-0.11
2018-02-20T01:58:49.332Z,-0.05
2018-02-20T01:59:58.306Z,-0.07
2018-02-20T02:01:07.129Z,-0.14
2018-02-20T02:02:15.955Z,-0.08
2018-02-20T02:03:24.779Z,-0.15
2018-02-20T02:04:33.883Z,-0.16
2018-02-20T02:05:42.758Z,-0.21
2018-02-20T02:06:51.586Z,-0.19
2018-02-20T02:08:00.684Z,-0.19
2018-02-20T02:09:09.511Z,-0.21
2018-02-20T02:10:18.336Z,-0.15
2018-02-20T02:11:27.209Z,-0.15
2018-02-20T02:12:36.033Z,-0.16
2018-02-20T02:13:44.859Z,-0.19
2018-02-20T02:14:53.684Z,-0.25
2018-02-20T02:16:02.509Z,-0.28
2018-02-20T02:17:11.612Z,-0.29
2018-02-20T02:18:20.437Z,-0.36
2018-02-20T02:19:29.259Z,-0.28
2018-02-20T02:20:38.085Z,-0.28
2018-02-20T02:21:46.909Z,-0.33
2018-02-20T02:22:55.786Z,-0.26
2018-02-20T02:24:04.609Z,-0.4
2018-02-20T02:25:13.711Z,-0.29
2018-02-20T02:26:22.535Z,-0.33
2018-02-20T02:27:31.359Z,-0.31
2018-02-20T02:28:40.183Z,-0.21
2018-02-20T02:29:49.008Z,-0.28
2018-02-20T02:30:57.832Z,-0.31
2018-02-20T02:32:06.658Z,-0.37
2018-02-20T02:33:15.757Z,-0.42
2018-02-20T02:34:24.881Z,-0.29
2018-02-20T02:35:33.708Z,-0.34
2018-02-20T02:36:42.532Z,-0.37
2018-02-20T02:37:51.356Z,-0.36
2018-02-20T02:39:00.180Z,-0.33
2018-02-20T02:40:09.158Z,-0.31
2018-02-20T02:41:17.987Z,-0.33
2018-02-20T02:42:26.804Z,-0.26
2018-02-20T02:43:35.629Z,-0.31
2018-02-20T02:44:44.734Z,-0.29
2018-02-20T02:45:53.985Z,-0.33
2018-02-20T02:47:02.811Z,-0.37
2018-02-20T02:48:11.635Z,-0.37
2018-02-20T02:49:20.456Z,-0.43
2018-02-20T02:50:29.280Z,-0.46
2018-02-20T02:51:38.416Z,-0.42
2018-02-20T02:52:47.506Z,-0.47
2018-02-20T02:53:56.334Z,-0.54
2018-02-20T02:55:05.440Z,-0.47
2018-02-20T02:56:14.267Z,-0.49
2018-02-20T02:57:23.092Z,-0.44
2018-02-20T02:58:32.196Z,-0.44
2018-02-20T02:59:41.310Z,-0.44
2018-02-20T03:00:50.123Z,-0.46
2018-02-20T03:01:58.952Z,-0.42
2018-02-20T03:03:08.112Z,-0.44
2018-02-20T03:04:16.930Z,-0.46
2018-02-20T03:05:25.756Z,-0.4
2018-02-20T03:06:34.581Z,-0.43
2018-02-20T03:07:43.408Z,-0.46
2018-02-20T03:08:52.231Z,-0.47
2018-02-20T03:10:01.603Z,-0.62
2018-02-20T03:11:10.707Z,-0.54
2018-02-20T03:12:19.807Z,-0.55
2018-02-20T03:13:28.633Z,-0.6
2018-02-20T03:14:37.506Z,-0.64
2018-02-20T03:15:46.331Z,-0.64
2018-02-20T03:16:55.158Z,-0.57
2018-02-20T03:18:03.980Z,-0.6
2018-02-20T03:19:13.082Z,-0.6
2018-02-20T03:20:21.904Z,-0.61
2018-02-20T03:21:30.730Z,-0.61
2018-02-20T03:22:39.556Z,-0.58
2018-02-20T03:23:48.381Z,-0.6
2018-02-20T03:24:57.209Z,-0.61
2018-02-20T03:26:06.083Z,-0.64
2018-02-20T03:27:14.902Z,-0.54
2018-02-20T03:28:23.735Z,-0.64
2018-02-20T03:29:32.555Z,-0.64
2018-02-20T03:30:41.381Z,-0.61
2018-02-20T03:31:50.253Z,-0.65
2018-02-20T03:32:59.078Z,-0.64
2018-02-20T03:34:07.901Z,-0.61
2018-02-20T03:35:16.728Z,-0.61
2018-02-20T03:36:25.549Z,-0.62
2018-02-20T03:37:34.754Z,-0.64
2018-02-20T03:38:43.576Z,-0.62
2018-02-20T03:39:52.401Z,-0.67
2018-02-20T03:41:01.227Z,-0.62
2018-02-20T03:42:10.048Z,-0.67
2018-02-20T03:43:19.121Z,-0.67
2018-02-20T03:44:27.947Z,-0.76
2018-02-20T03:45:36.769Z,-0.72
2018-02-20T03:46:45.597Z,-0.83
2018-02-20T03:47:54.418Z,-0.82
2018-02-20T03:49:03.392Z,-0.76
2018-02-20T03:50:12.214Z,-0.78
2018-02-20T03:51:21.039Z,-0.75
2018-02-20T03:52:29.865Z,-0.82
2018-02-20T03:53:38.691Z,-0.73
2018-02-20T03:54:47.817Z,-0.82
2018-02-20T03:55:56.640Z,-0.83
2018-02-20T03:57:05.468Z,-0.85
2018-02-20T03:58:14.287Z,-0.86
2018-02-20T03:59:23.390Z,-0.97
2018-02-20T04:00:32.616Z,-0.85
2018-02-20T04:01:41.443Z,-0.82
2018-02-20T04:02:50.267Z,-0.82
2018-02-20T04:03:59.091Z,-0.99
2018-02-20T04:05:08.193Z,-0.92
2018-02-20T04:06:17.294Z,-0.97
2018-02-20T04:07:26.119Z,-0.97
2018-02-20T04:08:34.941Z,-0.94
2018-02-20T04:09:43.766Z,-0.95
2018-02-20T04:10:52.866Z,-1.12
2018-02-20T04:12:01.740Z,-0.97
2018-02-20T04:13:10.562Z,-0.89
2018-02-20T04:14:19.388Z,-0.97
2018-02-20T04:15:28.211Z,-0.97
2018-02-20T04:16:37.034Z,-0.89
2018-02-20T04:17:45.858Z,-0.95
2018-02-20T04:18:54.681Z,-0.97
2018-02-20T04:20:03.782Z,-0.92
2018-02-20T04:21:12.605Z,-0.95
2018-02-20T04:22:21.428Z,-1.02
2018-02-20T04:23:30.360Z,-0.99
2018-02-20T04:24:39.128Z,-0.98
2018-02-20T04:25:47.953Z,-1.02
2018-02-20T04:26:56.777Z,-1.09
2018-02-20T04:28:05.601Z,-1.07
2018-02-20T04:29:14.523Z,-1.17
2018-02-20T04:30:23.350Z,-1.1
2018-02-20T04:31:32.171Z,-1.12
2018-02-20T04:32:40.995Z,-1.1
2018-02-20T04:33:50.169Z,-1.19
2018-02-20T04:34:59.146Z,-1.15
2018-02-20T04:36:07.971Z,-1.12
2018-02-20T04:37:17.081Z,-1.1
2018-02-20T04:38:26.180Z,-1.2
2018-02-20T04:39:35.005Z,-1.16
2018-02-20T04:40:43.877Z,-1.16
2018-02-20T04:41:52.978Z,-1.17
2018-02-20T04:43:01.803Z,-1.22
2018-02-20T04:44:10.627Z,-1.17
2018-02-20T04:45:19.449Z,-1.13
2018-02-20T04:46:28.374Z,-1.19
2018-02-20T04:47:37.198Z,-1.17
2018-02-20T04:48:46.023Z,-1.2
2018-02-20T04:49:54.847Z,-1.23
2018-02-20T04:51:03.668Z,-1.15
2018-02-20T04:52:12.793Z,-1.23
2018-02-20T04:53:21.616Z,-1.27
2018-02-20T04:54:30.443Z,-1.23
2018-02-20T04:55:39.267Z,-1.2
2018-02-20T04:56:48.092Z,-1.19
2018-02-20T04:57:57.020Z,-1.19
2018-02-20T04:59:05.840Z,-1.31
2018-02-20T05:00:14.666Z,-1.3
2018-02-20T05:01:23.489Z,-1.16
2018-02-20T05:02:32.313Z,-1.27
2018-02-20T05:03:41.287Z,-1.27
2018-02-20T05:04:50.109Z,-1.2
2018-02-20T05:05:58.932Z,-1.28
2018-02-20T05:07:07.757Z,-1.25
2018-02-20T05:08:16.579Z,-1.17
2018-02-20T05:09:25.704Z,-1.2
2018-02-20T05:10:34.536Z,-1.17
2018-02-20T05:11:43.352Z,-1.12
2018-02-20T05:12:52.189Z,-1.17
2018-02-20T05:14:01.002Z,-1.23
2018-02-20T05:15:10.027Z,-1.2
2018-02-20T05:16:18.850Z,-1.25
2018-02-20T05:17:27.672Z,-1.17
2018-02-20T05:18:36.494Z,-1.22
2018-02-20T05:19:45.317Z,-1.19
2018-02-20T05:20:54.338Z,-1.16
2018-02-20T05:22:03.161Z,-1.23
2018-02-20T05:23:11.987Z,-1.19
2018-02-20T05:24:20.809Z,-1.17
2018-02-20T05:25:29.632Z,-1.1
2018-02-20T05:26:39.046Z,-1.19
2018-02-20T05:27:47.862Z,-1.22
2018-02-20T05:28:56.687Z,-1.12
2018-02-20T05:30:05.791Z,-1.25
2018-02-20T05:31:14.617Z,-1.19
2018-02-20T05:32:23.488Z,-1.15
2018-02-20T05:33:32.319Z,-1.17
2018-02-20T05:34:41.144Z,-1.17
2018-02-20T05:35:49.967Z,-1.2
2018-02-20T05:36:58.794Z,-1.19
2018-02-20T05:38:07.671Z,-1.23
2018-02-20T05:39:16.772Z,-1.27
2018-02-20T05:40:25.595Z,-1.27
2018-02-20T05:41:34.421Z,-1.31
2018-02-20T05:42:43.243Z,-1.31
2018-02-20T05:43:52.068Z,-1.28
2018-02-20T05:45:00.895Z,-1.27
2018-02-20T05:46:09.724Z,-1.33
2018-02-20T05:47:18.559Z,-1.33
2018-02-20T05:48:27.384Z,-1.37
2018-02-20T05:49:36.208Z,-1.35
2018-02-20T05:50:45.030Z,-1.4
2018-02-20T05:51:54.130Z,-1.37
2018-02-20T05:53:02.953Z,-1.38
2018-02-20T05:54:11.777Z,-1.33
2018-02-20T05:55:20.598Z,-1.34
2018-02-20T05:56:29.420Z,-1.35
2018-02-20T05:57:38.524Z,-1.45
2018-02-20T05:58:47.345Z,-1.34
2018-02-20T05:59:56.167Z,-1.34
2018-02-20T06:01:04.998Z,-1.31
2018-02-20T06:02:13.819Z,-1.34
2018-02-20T06:03:22.642Z,-1.38
2018-02-20T06:04:31.465Z,-1.35
2018-02-20T06:05:40.294Z,-1.33
2018-02-20T06:06:49.119Z,-1.41
2018-02-20T06:07:57.946Z,-1.48
2018-02-20T06:09:06.821Z,-1.38
2018-02-20T06:10:15.644Z,-1.34
2018-02-20T06:11:24.469Z,-1.34
2018-02-20T06:12:33.293Z,-1.4
2018-02-20T06:13:42.117Z,-1.35
2018-02-20T06:14:50.941Z,-1.28
2018-02-20T06:16:00.046Z,-1.33
2018-02-20T06:17:08.869Z,-1.34
2018-02-20T06:18:17.968Z,-1.46
2018-02-20T06:19:26.797Z,-1.34
2018-02-20T06:20:36.229Z,-1.38
2018-02-20T06:21:45.048Z,-1.46
2018-02-20T06:22:53.872Z,-1.41
2018-02-20T06:24:02.697Z,-1.34
2018-02-20T06:25:11.797Z,-1.37
2018-02-20T06:26:20.623Z,-1.43
2018-02-20T06:27:29.729Z,-1.48
2018-02-20T06:28:38.551Z,-1.4
2018-02-20T06:29:47.377Z,-1.49
2018-02-20T06:30:56.205Z,-1.38
2018-02-20T06:32:05.129Z,-1.35
2018-02-20T06:33:13.969Z,-1.43
2018-02-20T06:34:22.793Z,-1.35
2018-02-20T06:35:31.619Z,-1.38
2018-02-20T06:36:40.445Z,-1.46
2018-02-20T06:37:49.319Z,-1.48
2018-02-20T06:38:58.420Z,-1.45
2018-02-20T06:40:07.245Z,-1.46
2018-02-20T06:41:16.343Z,-1.48
2018-02-20T06:42:25.166Z,-1.45
2018-02-20T06:43:34.290Z,-1.41
2018-02-20T06:44:43.114Z,-1.45
2018-02-20T06:45:52.214Z,-1.41
2018-02-20T06:47:01.039Z,-1.38
2018-02-20T06:48:09.861Z,-1.38
2018-02-20T06:49:19.061Z,-1.46
2018-02-20T06:50:28.091Z,-1.51
2018-02-20T06:51:36.996Z,-1.43
2018-02-20T06:52:46.050Z,-1.43
2018-02-20T06:53:54.992Z,-1.43
2018-02-20T06:55:33.602Z,-1.51
2018-02-20T06:56:42.502Z,-1.37
2018-02-20T06:57:51.381Z,-1.37
2018-02-20T06:59:00.245Z,-1.41
2018-02-20T07:00:09.594Z,-1.46
2018-02-20T07:01:18.565Z,-1.4
2018-02-20T07:02:27.487Z,-1.35
2018-02-20T07:03:36.312Z,-1.37
2018-02-20T07:04:45.136Z,-1.43
2018-02-20T07:05:54.010Z,-1.48
2018-02-20T07:07:02.831Z,-1.46
2018-02-20T07:08:11.656Z,-1.4
2018-02-20T07:09:20.480Z,-1.37
2018-02-20T07:10:29.306Z,-1.43
2018-02-20T07:11:38.430Z,-1.43
2018-02-20T07:12:47.254Z,-1.45
2018-02-20T07:13:56.080Z,-1.38
2018-02-20T07:15:04.901Z,-1.38
2018-02-20T07:16:14.001Z,-1.4
2018-02-20T07:17:23.024Z,-1.35
2018-02-20T07:18:31.848Z,-1.38
2018-02-20T07:19:40.674Z,-1.3
2018-02-20T07:20:49.500Z,-1.4
2018-02-20T07:21:58.322Z,-1.4
2018-02-20T07:23:07.247Z,-1.33
2018-02-20T07:24:16.070Z,-1.4
2018-02-20T07:25:24.893Z,-1.34
2018-02-20T07:26:33.716Z,-1.33
2018-02-20T07:27:42.542Z,-1.25
2018-02-20T07:28:51.692Z,-1.33
2018-02-20T07:30:00.517Z,-1.34
2018-02-20T07:31:09.338Z,-1.22
2018-02-20T07:32:18.164Z,-1.23
2018-02-20T07:33:26.990Z,-1.22
2018-02-20T07:34:35.917Z,-1.17
2018-02-20T07:35:44.735Z,-1.16
2018-02-20T07:36:53.560Z,-1.17
2018-02-20T07:38:02.386Z,-1.12
2018-02-20T07:39:11.207Z,-1.13
2018-02-20T07:40:20.187Z,-1.1
2018-02-20T07:41:29.286Z,-1.07
2018-02-20T07:42:38.392Z,-1.02
2018-02-20T07:43:47.495Z,-0.98
2018-02-20T07:44:56.319Z,-0.92
2018-02-20T07:46:05.243Z,-0.91
2018-02-20T07:47:14.065Z,-0.82
2018-02-20T07:48:22.888Z,-0.89
2018-02-20T07:49:31.712Z,-0.82
2018-02-20T07:50:40.535Z,-0.7
2018-02-20T07:51:49.408Z,-0.79
2018-02-20T07:52:58.234Z,-0.85
2018-02-20T07:54:07.062Z,-0.85
2018-02-20T07:55:15.888Z,-0.78
2018-02-20T07:56:24.712Z,-0.64
2018-02-20T07:57:33.587Z,-0.67
2018-02-20T07:58:42.412Z,-0.7
2018-02-20T07:59:51.239Z,-0.61
2018-02-20T08:01:00.066Z,-0.64
2018-02-20T08:02:09.172Z,-0.61
2018-02-20T08:03:17.996Z,-0.51
2018-02-20T08:04:26.821Z,-0.51
2018-02-20T08:05:35.646Z,-0.51
2018-02-20T08:06:44.471Z,-0.52
2018-02-20T08:07:53.296Z,-0.42
2018-02-20T08:09:02.121Z,-0.43
2018-02-20T08:10:10.949Z,-0.44
2018-02-20T08:11:19.774Z,-0.36
2018-02-20T08:12:28.595Z,-0.29
2018-02-20T08:13:37.700Z,-0.28
2018-02-20T08:14:46.523Z,-0.28
2018-02-20T08:15:55.625Z,-0.23
2018-02-20T08:17:04.451Z,-0.15
2018-02-20T08:18:13.275Z,-0.16
2018-02-20T08:19:22.101Z,-0.1
2018-02-20T08:20:30.927Z,-0.15
2018-02-20T08:21:40.033Z,-0.1
2018-02-20T08:22:48.862Z,0.03
2018-02-20T08:23:57.684Z,-0.03
2018-02-20T08:25:06.508Z,-0.01
2018-02-20T08:26:15.633Z,-0.07
2018-02-20T08:27:24.460Z,-0.01
2018-02-20T08:28:33.283Z,0.02
2018-02-20T08:29:42.119Z,0.04
2018-02-20T08:30:50.935Z,0.13
2018-02-20T08:31:59.810Z,0.11
2018-02-20T08:33:08.918Z,0.17
2018-02-20T08:34:17.748Z,0.21
2018-02-20T08:35:26.569Z,0.26
2018-02-20T08:36:35.396Z,0.29
2018-02-20T08:37:44.473Z,0.32
2018-02-20T08:38:53.299Z,0.32
2018-02-20T08:40:02.125Z,0.36
2018-02-20T08:41:11.229Z,0.39
2018-02-20T08:42:20.057Z,0.38
2018-02-20T08:43:29.186Z,0.5
2018-02-20T08:44:38.018Z,0.46
2018-02-20T08:45:46.839Z,0.51
2018-02-20T08:46:55.665Z,0.5
2018-02-20T08:48:04.493Z,0.53
2018-02-20T08:49:13.368Z,0.6
2018-02-20T08:50:22.195Z,0.65
2018-02-20T08:51:31.019Z,0.61
2018-02-20T08:52:39.847Z,0.68
2018-02-20T08:53:48.675Z,0.76
2018-02-20T08:54:57.600Z,0.72
2018-02-20T08:56:06.425Z,0.79
2018-02-20T08:57:15.253Z,0.83
2018-02-20T08:58:24.084Z,0.87
2018-02-20T08:59:32.918Z,0.9
2018-02-20T09:00:42.040Z,0.9
2018-02-20T09:01:50.867Z,0.98
2018-02-20T09:02:59.691Z,0.98
2018-02-20T09:04:08.518Z,0.98
2018-02-20T09:05:17.342Z,1.08
2018-02-20T09:06:26.217Z,1.05
2018-02-20T09:07:35.050Z,1.09
2018-02-20T09:08:43.874Z,1.09
2018-02-20T09:09:52.699Z,1.12
2018-02-20T09:11:01.528Z,1.15
2018-02-20T09:12:10.356Z,1.11
2018-02-20T09:13:19.181Z,1.12
2018-02-20T09:14:28.010Z,1.22
2018-02-20T09:15:36.835Z,1.2
2018-02-20T09:16:45.688Z,1.33
2018-02-20T09:17:54.539Z,1.36
2018-02-20T09:19:03.366Z,1.33
2018-02-20T09:20:12.195Z,1.44
2018-02-20T09:21:21.021Z,1.45
2018-02-20T09:22:29.850Z,1.42
2018-02-20T09:23:39.231Z,1.62
2018-02-20T09:24:48.056Z,1.59
2018-02-20T09:25:56.892Z,1.62
2018-02-20T09:27:05.708Z,1.66
2018-02-20T09:28:14.534Z,1.76
2018-02-20T09:29:23.513Z,1.77
2018-02-20T09:30:32.339Z,1.81
2018-02-20T09:31:41.174Z,1.7
2018-02-20T09:32:50.552Z,1.81
2018-02-20T09:33:59.380Z,1.9
2018-02-20T09:35:08.357Z,2.03
2018-02-20T09:36:17.184Z,1.99
2018-02-20T09:37:26.012Z,1.9
2018-02-20T09:38:34.842Z,2.05
2018-02-20T09:39:43.667Z,1.9
2018-02-20T09:40:52.496Z,2.02
2018-02-20T09:42:01.330Z,2.3
2018-02-20T09:43:10.150Z,2.35
2018-02-20T09:44:18.979Z,2.3
2018-02-20T09:45:27.807Z,2.36
2018-02-20T09:46:36.685Z,2.39
2018-02-20T09:47:45.515Z,2.38
2018-02-20T09:48:54.342Z,2.41
2018-02-20T09:50:03.168Z,2.38
2018-02-20T09:51:11.998Z,2.41
2018-02-20T09:52:20.823Z,2.46
2018-02-20T09:53:29.654Z,2.59
2018-02-20T09:54:38.481Z,2.53
2018-02-20T09:55:47.309Z,2.66
2018-02-20T09:56:56.138Z,2.71
2018-02-20T09:58:05.118Z,2.74
2018-02-20T09:59:13.956Z,2.78
2018-02-20T10:00:22.782Z,2.79
2018-02-20T10:01:31.611Z,2.89
2018-02-20T10:02:40.794Z,2.84
2018-02-20T10:03:49.886Z,2.89
2018-02-20T10:04:58.716Z,2.97
2018-02-20T10:06:07.543Z,2.96
2018-02-20T10:07:16.370Z,2.97
2018-02-20T10:08:25.209Z,3.03
2018-02-20T10:09:34.180Z,3.05
2018-02-20T10:10:43.006Z,3.02
2018-02-20T10:11:52.111Z,3.15
2018-02-20T10:13:00.941Z,3.18
2018-02-20T10:14:09.774Z,3.14
2018-02-20T10:15:18.700Z,3.06
2018-02-20T10:16:27.530Z,3.24
2018-02-20T10:17:36.360Z,3.31
2018-02-20T10:18:45.192Z,3.39
2018-02-20T10:19:54.022Z,3.36
2018-02-20T10:21:03.150Z,3.47
2018-02-20T10:22:11.981Z,3.51
2018-02-20T10:23:21.129Z,3.62
2018-02-20T10:24:29.915Z,3.68
2018-02-20T10:25:38.744Z,3.65
2018-02-20T10:26:48.095Z,3.68
2018-02-20T10:27:56.925Z,3.69
2018-02-20T10:29:05.752Z,3.73
2018-02-20T10:30:14.580Z,3.83
2018-02-20T10:31:23.409Z,3.9
2018-02-20T10:32:32.564Z,3.93
2018-02-20T10:33:41.397Z,3.97
2018-02-20T10:34:50.226Z,4
2018-02-20T10:35:59.057Z,3.96
2018-02-20T10:37:07.884Z,3.97
2018-02-20T10:38:16.811Z,4
2018-02-20T10:39:25.641Z,4.06
2018-02-20T10:40:34.472Z,4.06
2018-02-20T10:41:43.304Z,4.08
2018-02-20T10:42:52.129Z,4.15
2018-02-20T10:44:01.261Z,4.2
2018-02-20T10:45:10.091Z,4.22
2018-02-20T10:46:18.919Z,4.33
2018-02-20T10:47:27.747Z,4.41
2018-02-20T10:48:36.578Z,4.41
2018-02-20T10:49:45.508Z,4.34
2018-02-20T10:50:54.338Z,4.41
2018-02-20T10:52:03.169Z,4.4
2018-02-20T10:53:12.000Z,4.45
2018-02-20T10:54:20.835Z,4.62
2018-02-20T10:55:29.939Z,4.63
2018-02-20T10:56:38.768Z,4.62
2018-02-20T10:57:47.597Z,4.73
2018-02-20T10:58:56.425Z,4.77
2018-02-20T11:00:05.254Z,4.82
2018-02-20T11:01:14.786Z,4.75
2018-02-20T11:02:23.616Z,4.75
2018-02-20T11:03:32.726Z,4.77
2018-02-20T11:04:41.558Z,4.84
2018-02-20T11:05:50.387Z,4.91
2018-02-20T11:06:59.524Z,4.8
2018-02-20T11:08:08.632Z,4.92
2018-02-20T11:09:17.461Z,4.92
2018-02-20T11:10:26.290Z,4.94
2018-02-20T11:11:35.120Z,5.03
2018-02-20T11:12:44.252Z,5.02
2018-02-20T11:13:53.086Z,5.04
2018-02-20T11:15:01.915Z,5.03
2018-02-20T11:16:10.745Z,5.12
2018-02-20T11:17:19.576Z,5.15
2018-02-20T11:18:28.562Z,5.06
2018-02-20T11:19:37.394Z,5.15
2018-02-20T11:20:46.225Z,5.25
2018-02-20T11:21:55.608Z,5.24
2018-02-20T11:23:04.440Z,5.28
2018-02-20T11:24:13.649Z,5.33
2018-02-20T11:25:22.478Z,5.38
2018-02-20T11:26:31.310Z,5.36
2018-02-20T11:27:40.140Z,5.38
2018-02-20T11:28:48.970Z,5.48
2018-02-20T11:29:57.900Z,5.49
2018-02-20T11:31:06.733Z,5.43
2018-02-20T11:32:15.568Z,5.51
2018-02-20T11:33:24.397Z,5.46
2018-02-20T11:34:33.227Z,5.54
2018-02-20T11:35:42.258Z,5.48
2018-02-20T11:36:51.086Z,5.49
2018-02-20T11:37:59.921Z,5.46
2018-02-20T11:39:08.752Z,5.4
2018-02-20T11:40:17.584Z,5.54
2018-02-20T11:41:26.415Z,5.65
2018-02-20T11:42:35.245Z,5.63
2018-02-20T11:43:44.073Z,5.67
2018-02-20T11:44:52.904Z,5.74
2018-02-20T11:46:02.017Z,5.68
2018-02-20T11:47:10.946Z,5.83
2018-02-20T11:48:19.777Z,5.71
2018-02-20T11:49:28.609Z,5.82
2018-02-20T11:50:37.450Z,5.81
2018-02-20T11:51:46.555Z,5.83
2018-02-20T11:52:55.786Z,5.86
2018-02-20T11:54:04.896Z,5.91
2018-02-20T11:55:13.726Z,5.85
2018-02-20T11:56:22.564Z,5.9
2018-02-20T11:57:31.400Z,5.93
2018-02-20T11:58:40.379Z,5.9
2018-02-20T11:59:49.211Z,5.99
2018-02-20T12:00:58.046Z,5.99
2018-02-20T12:02:06.878Z,6.06
2018-02-20T12:03:15.712Z,6.11
2018-02-20T12:04:24.945Z,6.18
2018-02-20T12:05:33.776Z,6.14
2018-02-20T12:06:42.608Z,6.19
2018-02-20T12:07:51.443Z,6.14
2018-02-20T12:09:00.276Z,6.11
2018-02-20T12:10:09.158Z,6.06
2018-02-20T12:11:17.992Z,6.11
2018-02-20T12:12:26.826Z,6.17
2018-02-20T12:13:35.660Z,6.06
2018-02-20T12:14:44.492Z,6.12
2018-02-20T12:15:53.622Z,6.12
2018-02-20T12:17:02.739Z,6.18
2018-02-20T12:18:11.572Z,6.15
2018-02-20T12:19:20.402Z,6.12
2018-02-20T12:20:29.241Z,6.15
2018-02-20T12:21:38.224Z,6.11
2018-02-20T12:22:47.129Z,6.12
2018-02-20T12:23:56.245Z,6.19
2018-02-20T12:25:05.132Z,6.28
2018-02-20T12:26:13.914Z,6.28
2018-02-20T12:27:22.800Z,6.25
2018-02-20T12:28:31.636Z,6.41
2018-02-20T12:29:40.467Z,6.36
2018-02-20T12:30:49.300Z,6.41
2018-02-20T12:31:58.134Z,6.51
2018-02-20T12:33:07.173Z,6.51
2018-02-20T12:34:16.010Z,6.52
2018-02-20T12:35:24.844Z,6.56
2018-02-20T12:36:33.683Z,6.61
2018-02-20T12:37:42.791Z,6.62
2018-02-20T12:38:51.726Z,6.46
2018-02-20T12:40:00.561Z,6.59
2018-02-20T12:41:09.396Z,6.66
2018-02-20T12:42:18.233Z,6.43
2018-02-20T12:43:27.067Z,6.52
2018-02-20T12:44:36.001Z,6.52
2018-02-20T12:45:45.113Z,6.56
2018-02-20T12:46:53.957Z,6.7
2018-02-20T12:48:03.028Z,6.71
2018-02-20T12:49:11.861Z,6.66
2018-02-20T12:50:21.570Z,6.62
2018-02-20T12:51:30.431Z,6.61
2018-02-20T12:52:39.266Z,6.52
2018-02-20T12:53:48.102Z,6.48
2018-02-20T12:54:56.934Z,6.46
2018-02-20T12:56:06.151Z,6.38
2018-02-20T12:57:15.262Z,6.43
2018-02-20T12:58:24.096Z,6.37
2018-02-20T12:59:32.931Z,6.38
2018-02-20T13:00:42.324Z,6.27
2018-02-20T13:01:51.260Z,6.28
2018-02-20T13:03:00.097Z,6.27
2018-02-20T13:04:09.208Z,6.4
2018-02-20T13:05:18.315Z,6.51
2018-02-20T13:06:27.149Z,6.66
2018-02-20T13:07:36.135Z,6.64
2018-02-20T13:08:44.971Z,6.74
2018-02-20T13:09:54.187Z,6.8
2018-02-20T13:11:03.026Z,6.87
2018-02-20T13:12:11.858Z,6.84
2018-02-20T13:13:20.993Z,6.89
2018-02-20T13:14:29.830Z,6.91
2018-02-20T13:15:38.665Z,6.94
2018-02-20T13:16:47.501Z,6.85
2018-02-20T13:17:56.337Z,6.8
2018-02-20T13:19:05.272Z,6.85
2018-02-20T13:20:14.126Z,6.7
2018-02-20T13:21:22.968Z,6.61
2018-02-20T13:22:31.835Z,6.66
2018-02-20T13:23:40.669Z,6.67
2018-02-20T13:24:49.625Z,6.64
2018-02-20T13:25:58.460Z,6.77
2018-02-20T13:27:07.294Z,6.79
2018-02-20T13:28:16.131Z,6.85
2018-02-20T13:29:24.974Z,6.91
2018-02-20T13:30:33.913Z,6.94
2018-02-20T13:31:43.022Z,6.92
2018-02-20T13:32:51.877Z,6.85
2018-02-20T13:34:00.711Z,6.98
2018-02-20T13:35:09.581Z,7.09
2018-02-20T13:36:18.689Z,7.25
2018-02-20T13:37:27.573Z,7.37
2018-02-20T13:38:36.456Z,7.13
2018-02-20T13:39:45.542Z,7.23
2018-02-20T13:40:54.377Z,7.2
2018-02-20T13:42:03.333Z,7.28
2018-02-20T13:43:12.404Z,7.34
2018-02-20T13:44:21.240Z,7.37
2018-02-20T13:45:30.075Z,7.17
2018-02-20T13:46:38.974Z,7.3
2018-02-20T13:47:47.809Z,7.45
2018-02-20T13:48:56.652Z,7.63
2018-02-20T13:50:05.698Z,7.89
2018-02-20T13:51:14.815Z,7.93
2018-02-20T13:52:23.648Z,7.86
2018-02-20T13:53:32.573Z,7.86
2018-02-20T13:54:41.428Z,7.8
2018-02-20T13:55:50.566Z,7.79
2018-02-20T13:56:59.392Z,7.71
2018-02-20T13:58:08.231Z,7.63
2018-02-20T13:59:17.367Z,7.67
2018-02-20T14:00:26.246Z,7.49
2018-02-20T14:01:35.082Z,7.49
2018-02-20T14:02:43.916Z,7.32
2018-02-20T14:03:52.754Z,7.34
2018-02-20T14:05:01.591Z,7.31
2018-02-20T14:06:10.425Z,7.16
2018-02-20T14:07:19.261Z,7.13
2018-02-20T14:08:28.096Z,6.99
2018-02-20T14:09:36.935Z,6.98
2018-02-20T14:10:45.816Z,7.06
2018-02-20T14:11:54.729Z,7.15
2018-02-20T14:13:03.591Z,7.23
2018-02-20T14:14:12.765Z,7.2
2018-02-20T14:15:21.604Z,7.43
2018-02-20T14:16:30.445Z,7.58
2018-02-20T14:17:39.552Z,7.55
2018-02-20T14:18:48.387Z,7.53
2018-02-20T14:19:57.228Z,7.28
2018-02-20T14:21:06.062Z,7.4
2018-02-20T14:22:15.065Z,7.42
2018-02-20T14:23:24.174Z,7.53
2018-02-20T14:24:33.008Z,7.61
2018-02-20T14:25:41.840Z,7.63
2018-02-20T14:26:50.677Z,7.85
2018-02-20T14:27:59.511Z,7.86
2018-02-20T14:29:08.344Z,7.92
2018-02-20T14:30:17.456Z,7.95
2018-02-20T14:31:26.291Z,7.97
2018-02-20T14:32:35.276Z,8.07
2018-02-20T14:33:44.114Z,8.07
2018-02-20T14:34:52.948Z,8.11
2018-02-20T14:36:01.784Z,8.1
2018-02-20T14:37:10.616Z,7.93
2018-02-20T14:38:19.449Z,7.95
2018-02-20T14:39:28.284Z,7.93
2018-02-20T14:40:37.121Z,7.89
2018-02-20T14:41:45.950Z,7.85
2018-02-20T14:42:54.784Z,7.75
2018-02-20T14:44:03.618Z,7.55
2018-02-20T14:45:12.450Z,7.58
2018-02-20T14:46:21.284Z,7.68
2018-02-20T14:47:30.116Z,7.8
2018-02-20T14:48:38.957Z,7.85
2018-02-20T14:49:47.785Z,7.85
2018-02-20T14:50:56.618Z,7.77
2018-02-20T14:52:05.733Z,7.67
2018-02-20T14:53:14.844Z,7.67
2018-02-20T14:54:23.960Z,7.67
2018-02-20T14:55:32.802Z,7.68
2018-02-20T14:56:42.181Z,7.67
2018-02-20T14:57:51.015Z,7.64
2018-02-20T14:58:59.852Z,7.67
2018-02-20T15:00:08.689Z,7.63
2018-02-20T15:01:17.525Z,7.67
2018-02-20T15:02:26.361Z,7.63
2018-02-20T15:03:35.194Z,7.17
2018-02-20T15:04:44.181Z,7.15
2018-02-20T15:05:53.016Z,7.17
2018-02-20T15:07:01.849Z,6.98